Time,TemperatureF,DewpointF,PressureIn,WindDirection,WindDirectionDegrees,WindSpeedMPH,WindSpeedGustMPH,Humidity,HourlyPrecipIn,Conditions,Clouds,dailyrainin,SolarRadiationWatts/m^2,SoftwareType,DateUTC
2013-01-30 00:04:00,55.0,53.0,-100.00,SSW,199,4.0,12.0,92,0.01,,,0.60,0.000000,,2013-01-30 05:04:00,
2013-01-30 00:12:00,55.0,53.0,-100.00,SSW,199,4.0,12.0,92,0.01,,,0.60,0.000000,,2013-01-30 05:12:00,
2013-01-30 00:22:00,55.0,53.0,-100.00,SSW,199,4.0,12.0,92,0.01,,,0.60,0.000000,,2013-01-30 05:22:00,
2013-01-30 00:52:00,56.0,53.0,-100.00,SSW,207,4.0,16.0,91,0.03,,,0.63,0.000000,,2013-01-30 05:52:00,
2013-01-30 01:02:00,56.0,53.0,-100.00,SSW,207,4.0,16.0,91,0.03,,,0.63,0.000000,,2013-01-30 06:02:00,
2013-01-30 01:12:00,56.0,53.0,-100.00,SSW,207,4.0,16.0,91,0.03,,,0.63,0.000000,,2013-01-30 06:12:00,
2013-01-30 01:22:00,56.0,53.0,-100.00,SSW,207,4.0,16.0,91,0.03,,,0.63,0.000000,,2013-01-30 06:22:00,
2013-01-30 01:52:00,55.0,52.0,-100.00,SSW,193,2.0,8.0,89,0.02,,,0.65,0.000000,,2013-01-30 06:52:00,
2013-01-30 02:02:00,55.0,52.0,-100.00,SSW,193,2.0,8.0,89,0.02,,,0.65,0.000000,,2013-01-30 07:02:00,
2013-01-30 02:12:00,55.0,52.0,-100.00,SSW,193,2.0,8.0,89,0.02,,,0.65,0.000000,,2013-01-30 07:12:00,
2013-01-30 02:22:00,55.0,52.0,-100.00,SSW,193,2.0,8.0,89,0.02,,,0.65,0.000000,,2013-01-30 07:22:00,
2013-01-30 02:52:00,54.0,50.0,-100.00,SSE,164,3.0,11.0,85,0.00,,,0.65,0.000000,,2013-01-30 07:52:00,
2013-01-30 03:02:00,54.0,50.0,-100.00,SSE,164,3.0,11.0,85,0.00,,,0.65,0.000000,,2013-01-30 08:02:00,
2013-01-30 03:11:00,54.0,50.0,-100.00,SSE,164,3.0,11.0,85,0.00,,,0.65,0.000000,,2013-01-30 08:11:00,
2013-01-30 03:22:00,54.0,50.0,-100.00,SSE,164,3.0,11.0,85,0.00,,,0.65,0.000000,,2013-01-30 08:22:00,
2013-01-30 03:52:00,55.0,50.0,-100.00,South,176,3.0,9.0,82,0.00,,,0.65,0.000000,,2013-01-30 08:52:00,
2013-01-30 04:02:00,55.0,50.0,-100.00,South,176,3.0,9.0,82,0.00,,,0.65,0.000000,,2013-01-30 09:02:00,
2013-01-30 04:12:00,55.0,50.0,-100.00,South,176,3.0,9.0,82,0.00,,,0.65,0.000000,,2013-01-30 09:12:00,
2013-01-30 04:22:00,55.0,50.0,-100.00,South,176,3.0,9.0,82,0.00,,,0.65,0.000000,,2013-01-30 09:22:00,
2013-01-30 04:52:00,60.0,51.0,-100.00,SSW,196,6.0,15.0,72,0.00,,,0.65,0.000000,,2013-01-30 09:52:00,
2013-01-30 05:02:00,60.0,51.0,-100.00,SSW,196,6.0,15.0,72,0.00,,,0.65,0.000000,,2013-01-30 10:02:00,
2013-01-30 05:12:00,60.0,51.0,-100.00,SSW,196,6.0,15.0,72,0.00,,,0.65,0.000000,,2013-01-30 10:12:00,
2013-01-30 05:21:00,60.0,51.0,-100.00,SSW,196,6.0,15.0,72,0.00,,,0.65,0.000000,,2013-01-30 10:21:00,
2013-01-30 05:52:00,58.0,49.0,-100.00,SSE,165,2.0,12.0,73,0.00,,,0.65,0.000000,,2013-01-30 10:52:00,
2013-01-30 06:02:00,58.0,49.0,-100.00,SSE,165,2.0,12.0,73,0.00,,,0.65,0.000000,,2013-01-30 11:02:00,
2013-01-30 06:11:00,58.0,49.0,-100.00,SSE,165,2.0,12.0,73,0.00,,,0.65,0.000000,,2013-01-30 11:11:00,
2013-01-30 06:22:00,58.0,49.0,-100.00,SSE,165,2.0,12.0,73,0.00,,,0.65,0.000000,,2013-01-30 11:22:00,
2013-01-30 06:52:00,58.0,48.0,-100.00,South,177,4.0,10.0,70,0.00,,,0.65,0.000000,,2013-01-30 11:52:00,
2013-01-30 07:02:00,58.0,48.0,-100.00,South,177,4.0,10.0,70,0.00,,,0.65,0.000000,,2013-01-30 12:02:00,
2013-01-30 07:12:00,58.0,48.0,-100.00,South,177,4.0,10.0,70,0.00,,,0.65,0.000000,,2013-01-30 12:12:00,
2013-01-30 07:22:00,58.0,48.0,-100.00,South,177,4.0,10.0,70,0.00,,,0.65,0.000000,,2013-01-30 12:22:00,
2013-01-30 08:03:00,59.0,49.0,-100.00,SSW,195,3.0,10.0,70,0.00,,,0.65,0.000000,,2013-01-30 13:03:00,
2013-01-30 08:12:00,59.0,49.0,-100.00,SSW,195,3.0,10.0,70,0.00,,,0.65,0.000000,,2013-01-30 13:12:00,
2013-01-30 08:23:00,59.0,49.0,-100.00,SSW,195,3.0,10.0,70,0.00,,,0.65,0.000000,,2013-01-30 13:23:00,
2013-01-30 08:53:00,66.0,50.0,-100.00,SW,219,10.0,25.0,56,0.00,,,0.65,13.000000,,2013-01-30 13:53:00,
2013-01-30 09:03:00,66.0,50.0,-100.00,SW,219,10.0,25.0,56,0.00,,,0.65,13.000000,,2013-01-30 14:03:00,
2013-01-30 09:12:00,66.0,50.0,-100.00,SW,219,10.0,25.0,56,0.00,,,0.65,13.000000,,2013-01-30 14:12:00,
2013-01-30 09:23:00,66.0,50.0,-100.00,SW,219,10.0,25.0,56,0.00,,,0.65,13.000000,,2013-01-30 14:23:00,
2013-01-30 09:53:00,67.0,51.0,-100.00,SW,217,9.0,23.0,56,0.00,,,0.65,48.000000,,2013-01-30 14:53:00,
2013-01-30 10:03:00,67.0,51.0,-100.00,SW,217,9.0,23.0,56,0.00,,,0.65,48.000000,,2013-01-30 15:03:00,
2013-01-30 10:12:00,67.0,51.0,-100.00,SW,217,9.0,23.0,56,0.00,,,0.65,48.000000,,2013-01-30 15:12:00,
2013-01-30 10:23:00,67.0,51.0,-100.00,SW,217,9.0,23.0,56,0.00,,,0.65,48.000000,,2013-01-30 15:23:00,
2013-01-30 10:54:00,61.0,54.0,-100.00,SSW,205,6.0,24.0,78,0.03,,,0.68,47.000000,,2013-01-30 15:54:00,
2013-01-30 11:03:00,61.0,54.0,-100.00,SSW,205,6.0,24.0,78,0.03,,,0.68,47.000000,,2013-01-30 16:03:00,
2013-01-30 11:12:00,61.0,54.0,-100.00,SSW,205,6.0,24.0,78,0.03,,,0.68,47.000000,,2013-01-30 16:12:00,
2013-01-30 11:23:00,61.0,54.0,-100.00,SSW,205,6.0,24.0,78,0.03,,,0.68,47.000000,,2013-01-30 16:23:00,
2013-01-30 11:52:00,58.0,54.0,-100.00,SW,234,12.0,23.0,85,0.08,,,0.75,43.000000,,2013-01-30 16:52:00,
2013-01-30 12:03:00,58.0,54.0,-100.00,SW,234,12.0,23.0,85,0.08,,,0.75,43.000000,,2013-01-30 17:03:00,
2013-01-30 12:13:00,58.0,54.0,-100.00,SW,234,12.0,23.0,85,0.08,,,0.75,43.000000,,2013-01-30 17:13:00,
2013-01-30 12:23:00,58.0,54.0,-100.00,SW,234,12.0,23.0,85,0.08,,,0.75,43.000000,,2013-01-30 17:23:00,
2013-01-30 12:53:00,60.0,54.0,-100.00,SSW,204,7.0,24.0,82,0.00,,,0.52,187.000000,,2013-01-30 17:53:00,
2013-01-30 13:03:00,60.0,54.0,-100.00,SSW,204,7.0,24.0,82,0.00,,,0.52,187.000000,,2013-01-30 18:03:00,
2013-01-30 13:13:00,60.0,54.0,-100.00,SSW,204,7.0,24.0,82,0.00,,,0.52,187.000000,,2013-01-30 18:13:00,
2013-01-30 13:23:00,60.0,54.0,-100.00,SSW,204,7.0,24.0,82,0.00,,,0.52,187.000000,,2013-01-30 18:23:00,
2013-01-30 13:53:00,63.0,52.0,-100.00,SSW,212,10.0,20.0,67,0.00,,,0.50,228.000000,,2013-01-30 18:53:00,
2013-01-30 14:03:00,63.0,52.0,-100.00,SSW,212,10.0,20.0,67,0.00,,,0.50,228.000000,,2013-01-30 19:03:00,
2013-01-30 14:13:00,63.0,52.0,-100.00,SSW,212,10.0,20.0,67,0.00,,,0.50,228.000000,,2013-01-30 19:13:00,
2013-01-30 14:22:00,63.0,52.0,-100.00,SSW,212,10.0,20.0,67,0.00,,,0.50,228.000000,,2013-01-30 19:22:00,
2013-01-30 14:53:00,63.0,51.0,-100.00,SSW,203,8.0,22.0,64,0.00,,,0.50,91.000000,,2013-01-30 19:53:00,
2013-01-30 15:03:00,63.0,51.0,-100.00,SSW,203,8.0,22.0,64,0.00,,,0.50,91.000000,,2013-01-30 20:03:00,
2013-01-30 15:12:00,63.0,51.0,-100.00,SSW,203,8.0,22.0,64,0.00,,,0.50,91.000000,,2013-01-30 20:12:00,
2013-01-30 15:22:00,63.0,51.0,-100.00,SSW,203,8.0,22.0,64,0.00,,,0.50,91.000000,,2013-01-30 20:22:00,
2013-01-30 15:53:00,63.0,48.0,-100.00,SW,214,9.0,24.0,58,0.00,,,0.36,47.000000,,2013-01-30 20:53:00,
2013-01-30 16:04:00,63.0,48.0,-100.00,SW,214,9.0,24.0,58,0.00,,,0.36,47.000000,,2013-01-30 21:04:00,
2013-01-30 16:12:00,63.0,48.0,-100.00,SW,214,9.0,24.0,58,0.00,,,0.36,47.000000,,2013-01-30 21:12:00,
2013-01-30 16:23:00,63.0,48.0,-100.00,SW,214,9.0,24.0,58,0.00,,,0.36,47.000000,,2013-01-30 21:23:00,
2013-01-30 16:53:00,58.0,48.0,-100.00,WSW,246,6.0,18.0,69,0.00,,,0.24,34.000000,,2013-01-30 21:53:00,
2013-01-30 17:03:00,58.0,48.0,-100.00,WSW,246,6.0,18.0,69,0.00,,,0.24,34.000000,,2013-01-30 22:03:00,
2013-01-30 17:12:00,58.0,48.0,-100.00,WSW,246,6.0,18.0,69,0.00,,,0.24,34.000000,,2013-01-30 22:12:00,
2013-01-30 17:22:00,58.0,48.0,-100.00,WSW,246,6.0,18.0,69,0.00,,,0.24,34.000000,,2013-01-30 22:22:00,
2013-01-30 17:53:00,56.0,47.0,-100.00,SSW,209,3.0,11.0,73,0.00,,,0.24,9.000000,,2013-01-30 22:53:00,
2013-01-30 18:03:00,56.0,47.0,-100.00,SSW,209,3.0,11.0,73,0.00,,,0.24,9.000000,,2013-01-30 23:03:00,
2013-01-30 18:12:00,56.0,47.0,-100.00,SSW,209,3.0,11.0,73,0.00,,,0.24,9.000000,,2013-01-30 23:12:00,
2013-01-30 18:22:00,56.0,47.0,-100.00,SSW,209,3.0,11.0,73,0.00,,,0.24,9.000000,,2013-01-30 23:22:00,
2013-01-30 18:52:00,53.0,47.0,-100.00,South,169,2.0,18.0,79,0.00,,,0.24,0.000000,,2013-01-30 23:52:00,
2013-01-30 19:02:00,53.0,47.0,-100.00,South,169,2.0,18.0,79,0.00,,,0.24,0.000000,,2013-01-31 00:02:00,
2013-01-30 19:11:00,53.0,47.0,-100.00,South,169,2.0,18.0,79,0.00,,,0.24,0.000000,,2013-01-31 00:11:00,
2013-01-30 19:22:00,53.0,47.0,-100.00,South,169,2.0,18.0,79,0.00,,,0.24,0.000000,,2013-01-31 00:22:00,
2013-01-30 19:53:00,50.0,47.0,-100.00,SSW,203,2.0,4.0,88,0.00,,,0.24,0.000000,,2013-01-31 00:53:00,
2013-01-30 20:02:00,50.0,47.0,-100.00,SSW,203,2.0,4.0,88,0.00,,,0.24,0.000000,,2013-01-31 01:02:00,
2013-01-30 20:12:00,50.0,47.0,-100.00,SSW,203,2.0,4.0,88,0.00,,,0.24,0.000000,,2013-01-31 01:12:00,
2013-01-30 20:22:00,50.0,47.0,-100.00,SSW,203,2.0,4.0,88,0.00,,,0.24,0.000000,,2013-01-31 01:22:00,
2013-01-30 20:53:00,47.0,46.0,-100.00,East,91,1.0,4.0,95,0.00,,,0.19,0.000000,,2013-01-31 01:53:00,
2013-01-30 21:01:00,47.0,46.0,-100.00,East,91,1.0,4.0,95,0.00,,,0.19,0.000000,,2013-01-31 02:01:00,
2013-01-30 21:12:00,47.0,46.0,-100.00,East,91,1.0,4.0,95,0.00,,,0.19,0.000000,,2013-01-31 02:12:00,
2013-01-30 21:22:00,47.0,46.0,-100.00,East,91,1.0,4.0,95,0.00,,,0.19,0.000000,,2013-01-31 02:22:00,
2013-01-30 22:03:00,54.0,47.0,-100.00,SSW,209,3.0,8.0,78,0.00,,,-99.99,0.000000,,2013-01-31 03:03:00,
2013-01-30 22:11:00,54.0,47.0,-100.00,SSW,209,3.0,8.0,78,0.00,,,-99.99,0.000000,,2013-01-31 03:11:00,
2013-01-30 22:22:00,54.0,47.0,-100.00,SSW,209,3.0,8.0,78,0.00,,,-99.99,0.000000,,2013-01-31 03:22:00,
2013-01-30 22:52:00,54.0,49.0,-100.00,South,184,3.0,9.0,84,0.01,,,0.18,0.000000,,2013-01-31 03:52:00,
2013-01-30 23:02:00,54.0,49.0,-100.00,South,184,3.0,9.0,84,0.01,,,0.18,0.000000,,2013-01-31 04:02:00,
2013-01-30 23:11:00,54.0,49.0,-100.00,South,184,3.0,9.0,84,0.01,,,0.18,0.000000,,2013-01-31 04:11:00,
2013-01-30 23:22:00,54.0,49.0,-100.00,South,184,3.0,9.0,84,0.01,,,0.18,0.000000,,2013-01-31 04:22:00,
2013-01-30 23:52:00,52.0,51.0,-100.00,West,261,5.0,10.0,96,0.17,,,0.34,0.000000,,2013-01-31 04:52:00,